Главная страница
METAR-TAF:

METAR-TAF

Аэропорты :

Мариехамн, Финляндия

широта: 60-07N, долгота: 019-54E, высота над уровнем моря: 6 м

Текущие метеонаблюдения

Эта сводка был подготовлена 21 минут назад, в 22:50 UTC
Ветер 8 Узел от северный, изменяющийся между северо-западный и северо-северо-восточный
Температура 6°C
Влажность 81%
Давление 1035 hPa
Видимость 10 км и более
Нет облачности ниже 1500 м, и нет кучево-дождевой облачности

METAR: EFMA 172250Z AUTO 35008KT 320V030 CAVOK 06/03 Q1035

Время: 01:11 (23:11 UTC)

Прогноз

Эта сводка был подготовлена 2 часа и 36 минут назад, в 20:35 UTC
Прогноз действительный с 17-го 21 UTC до 18-го 06 UTC
Ветер 9 Узел от северный
Видимость 10 км и более
Нет облачности ниже 1500 м, и нет кучево-дождевой облачности
изменения
С 18-го 02 UTC до 18-го 04 UTC
Ветер 15 Узел от северный с порывами до 25 Узел

TAF: EFMA 172035Z 1721/1806 35009KT CAVOK BECMG 1802/1804 01015G25KT

Метеонаблюдения и прогнозы для более 4000 аэропортов (сводки METAR и TAF).

Имеющиеся станции представлены на карте желтыми и красными точками.

Чтобы увидеть название станции, наведите на нее мышь.

Затем щелкните, чтобы увидеть метеонаблюдения и метеопрогнозы.

Управление картой: чтобы увеличить масштаб, щелкните зеленые кнопки с черным крестиком; чтобы уменьшить масштаб, щелкните зеленую кнопку с тире; для просмотра соседних карт щелкайте зеленые стрелки.


METAR-TAF: